sensor_id;sensor_type;location;lat;lon;timestamp;temperature;humidity
48728;DHT22;34527;45.618;5.130;2022-12-11T00:00:15;-0.30;99.90
48728;DHT22;34527;45.618;5.130;2022-12-11T00:02:41;-0.40;99.90
48728;DHT22;34527;45.618;5.130;2022-12-11T00:05:07;-0.50;99.90
48728;DHT22;34527;45.618;5.130;2022-12-11T00:07:33;-0.50;99.90
48728;DHT22;34527;45.618;5.130;2022-12-11T00:09:59;-0.50;99.90
48728;DHT22;34527;45.618;5.130;2022-12-11T00:12:25;-0.50;99.90
48728;DHT22;34527;45.618;5.130;2022-12-11T00:14:51;-0.50;99.90
48728;DHT22;34527;45.618;5.130;2022-12-11T00:17:17;-0.60;99.90
48728;DHT22;34527;45.618;5.130;2022-12-11T00:19:43;-0.60;99.90
48728;DHT22;34527;45.618;5.130;2022-12-11T00:22:09;-0.60;99.90
48728;DHT22;34527;45.618;5.130;2022-12-11T00:24:34;-0.60;99.90
48728;DHT22;34527;45.618;5.130;2022-12-11T00:27:00;-0.60;99.90
48728;DHT22;34527;45.618;5.130;2022-12-11T00:29:26;-0.60;99.90
48728;DHT22;34527;45.618;5.130;2022-12-11T00:31:52;-0.60;99.90
48728;DHT22;34527;45.618;5.130;2022-12-11T00:34:18;-0.60;99.90
48728;DHT22;34527;45.618;5.130;2022-12-11T00:36:44;-0.60;99.90
48728;DHT22;34527;45.618;5.130;2022-12-11T00:39:10;-0.60;99.90
48728;DHT22;34527;45.618;5.130;2022-12-11T00:41:35;-0.60;99.90
48728;DHT22;34527;45.618;5.130;2022-12-11T00:44:01;-0.60;99.90
48728;DHT22;34527;45.618;5.130;2022-12-11T00:46:27;-0.60;99.90
48728;DHT22;34527;45.618;5.130;2022-12-11T00:48:53;-0.60;99.90
48728;DHT22;34527;45.618;5.130;2022-12-11T00:51:19;-0.60;99.90
48728;DHT22;34527;45.618;5.130;2022-12-11T00:53:45;-0.50;99.90
48728;DHT22;34527;45.618;5.130;2022-12-11T00:56:13;-0.50;99.90
48728;DHT22;34527;45.618;5.130;2022-12-11T00:58:39;-0.50;99.90
48728;DHT22;34527;45.618;5.130;2022-12-11T01:01:10;-0.50;99.90
48728;DHT22;34527;45.618;5.130;2022-12-11T01:03:37;-0.50;99.90
48728;DHT22;34527;45.618;5.130;2022-12-11T01:06:04;-0.50;99.90
48728;DHT22;34527;45.618;5.130;2022-12-11T01:08:30;-0.60;99.90
48728;DHT22;34527;45.618;5.130;2022-12-11T01:11:06;-0.60;99.90
48728;DHT22;34527;45.618;5.130;2022-12-11T01:13:32;-0.60;99.90
48728;DHT22;34527;45.618;5.130;2022-12-11T01:15:58;-0.60;99.90
48728;DHT22;34527;45.618;5.130;2022-12-11T01:18:26;-0.60;99.90
48728;DHT22;34527;45.618;5.130;2022-12-11T01:20:51;-0.50;99.90
48728;DHT22;34527;45.618;5.130;2022-12-11T01:23:17;-0.60;99.90
48728;DHT22;34527;45.618;5.130;2022-12-11T01:25:43;-0.60;99.90
48728;DHT22;34527;45.618;5.130;2022-12-11T01:28:09;-0.60;99.90
48728;DHT22;34527;45.618;5.130;2022-12-11T01:30:35;-0.60;99.90
48728;DHT22;34527;45.618;5.130;2022-12-11T01:33:02;-0.60;99.90
48728;DHT22;34527;45.618;5.130;2022-12-11T01:35:28;-0.60;99.90
48728;DHT22;34527;45.618;5.130;2022-12-11T01:37:55;-0.60;99.90
48728;DHT22;34527;45.618;5.130;2022-12-11T01:40:21;-0.60;99.90
48728;DHT22;34527;45.618;5.130;2022-12-11T01:42:47;-0.60;99.90
48728;DHT22;34527;45.618;5.130;2022-12-11T01:47:49;-0.60;99.90
48728;DHT22;34527;45.618;5.130;2022-12-11T01:50:15;-0.60;99.90
48728;DHT22;34527;45.618;5.130;2022-12-11T01:52:43;-0.60;99.90
48728;DHT22;34527;45.618;5.130;2022-12-11T01:55:10;-0.70;99.90
48728;DHT22;34527;45.618;5.130;2022-12-11T01:57:41;-0.70;99.90
48728;DHT22;34527;45.618;5.130;2022-12-11T02:00:08;-0.70;99.90
48728;DHT22;34527;45.618;5.130;2022-12-11T02:02:34;-0.60;99.90
48728;DHT22;34527;45.618;5.130;2022-12-11T02:05:02;-0.70;99.90
48728;DHT22;34527;45.618;5.130;2022-12-11T02:07:31;-0.70;99.90
48728;DHT22;34527;45.618;5.130;2022-12-11T02:10:00;-0.70;99.90
48728;DHT22;34527;45.618;5.130;2022-12-11T02:17:42;-0.70;99.90
48728;DHT22;34527;45.618;5.130;2022-12-11T02:26:04;-0.80;99.90
48728;DHT22;34527;45.618;5.130;2022-12-11T02:28:51;-0.80;99.90
48728;DHT22;34527;45.618;5.130;2022-12-11T02:31:43;-0.80;99.90
48728;DHT22;34527;45.618;5.130;2022-12-11T02:36:45;-0.80;99.90
48728;DHT22;34527;45.618;5.130;2022-12-11T02:39:15;-0.80;99.90
48728;DHT22;34527;45.618;5.130;2022-12-11T02:41:48;-0.80;99.90
48728;DHT22;34527;45.618;5.130;2022-12-11T02:44:16;-0.80;99.90
48728;DHT22;34527;45.618;5.130;2022-12-11T02:46:44;-0.90;99.90
48728;DHT22;34527;45.618;5.130;2022-12-11T02:49:11;-0.90;99.90
48728;DHT22;34527;45.618;5.130;2022-12-11T02:51:42;-0.90;99.90
48728;DHT22;34527;45.618;5.130;2022-12-11T02:54:17;-0.90;99.90
48728;DHT22;34527;45.618;5.130;2022-12-11T02:56:56;-1.00;99.90
48728;DHT22;34527;45.618;5.130;2022-12-11T02:59:28;-1.00;99.90
48728;DHT22;34527;45.618;5.130;2022-12-11T03:01:55;-1.00;99.90
48728;DHT22;34527;45.618;5.130;2022-12-11T03:04:21;-1.00;99.90
48728;DHT22;34527;45.618;5.130;2022-12-11T03:06:52;-1.10;99.90
48728;DHT22;34527;45.618;5.130;2022-12-11T03:09:19;-1.00;99.90
48728;DHT22;34527;45.618;5.130;2022-12-11T03:11:45;-1.00;99.90
48728;DHT22;34527;45.618;5.130;2022-12-11T03:14:11;-1.00;99.90
48728;DHT22;34527;45.618;5.130;2022-12-11T03:16:41;-1.00;99.90
48728;DHT22;34527;45.618;5.130;2022-12-11T03:22:18;-1.10;99.90
48728;DHT22;34527;45.618;5.130;2022-12-11T03:24:50;-1.10;99.90
48728;DHT22;34527;45.618;5.130;2022-12-11T03:27:24;-1.10;99.90
48728;DHT22;34527;45.618;5.130;2022-12-11T03:30:02;-1.10;99.90
48728;DHT22;34527;45.618;5.130;2022-12-11T03:32:33;-1.00;99.90
48728;DHT22;34527;45.618;5.130;2022-12-11T03:35:20;-1.00;99.90
48728;DHT22;34527;45.618;5.130;2022-12-11T03:37:48;-1.10;99.90
48728;DHT22;34527;45.618;5.130;2022-12-11T03:40:16;-1.10;99.90
48728;DHT22;34527;45.618;5.130;2022-12-11T03:42:45;-1.10;99.90
48728;DHT22;34527;45.618;5.130;2022-12-11T03:45:15;-1.10;99.90
48728;DHT22;34527;45.618;5.130;2022-12-11T03:47:42;-1.10;99.90
48728;DHT22;34527;45.618;5.130;2022-12-11T03:50:10;-1.10;99.90
48728;DHT22;34527;45.618;5.130;2022-12-11T03:52:40;-1.10;99.90
48728;DHT22;34527;45.618;5.130;2022-12-11T03:55:08;-1.10;99.90
48728;DHT22;34527;45.618;5.130;2022-12-11T03:57:36;-1.10;99.90
48728;DHT22;34527;45.618;5.130;2022-12-11T04:00:05;-1.10;99.90
48728;DHT22;34527;45.618;5.130;2022-12-11T04:02:31;-1.10;99.90
48728;DHT22;34527;45.618;5.130;2022-12-11T04:04:57;-1.10;99.90
48728;DHT22;34527;45.618;5.130;2022-12-11T04:07:23;-1.10;99.90
48728;DHT22;34527;45.618;5.130;2022-12-11T04:09:49;-1.10;99.90
48728;DHT22;34527;45.618;5.130;2022-12-11T04:12:14;-1.10;99.90
48728;DHT22;34527;45.618;5.130;2022-12-11T04:14:40;-1.10;99.90
48728;DHT22;34527;45.618;5.130;2022-12-11T04:17:25;-1.10;99.90
48728;DHT22;34527;45.618;5.130;2022-12-11T04:20:10;-1.20;99.90
48728;DHT22;34527;45.618;5.130;2022-12-11T04:22:54;-1.10;99.90
48728;DHT22;34527;45.618;5.130;2022-12-11T04:25:38;-1.10;99.90
48728;DHT22;34527;45.618;5.130;2022-12-11T04:28:04;-1.10;99.90
48728;DHT22;34527;45.618;5.130;2022-12-11T04:30:30;-1.20;99.90
48728;DHT22;34527;45.618;5.130;2022-12-11T04:32:56;-1.10;99.90
48728;DHT22;34527;45.618;5.130;2022-12-11T04:35:22;-1.10;99.90
48728;DHT22;34527;45.618;5.130;2022-12-11T04:37:48;-1.20;99.90
48728;DHT22;34527;45.618;5.130;2022-12-11T04:40:16;-1.20;99.90
48728;DHT22;34527;45.618;5.130;2022-12-11T04:42:42;-1.20;99.90
48728;DHT22;34527;45.618;5.130;2022-12-11T04:45:09;-1.30;99.90
48728;DHT22;34527;45.618;5.130;2022-12-11T04:47:37;-1.20;99.90
48728;DHT22;34527;45.618;5.130;2022-12-11T04:50:05;-1.30;99.90
48728;DHT22;34527;45.618;5.130;2022-12-11T04:52:31;-1.40;99.90
48728;DHT22;34527;45.618;5.130;2022-12-11T04:54:57;-1.40;99.90
48728;DHT22;34527;45.618;5.130;2022-12-11T04:57:23;-1.40;99.90
48728;DHT22;34527;45.618;5.130;2022-12-11T04:59:49;-1.40;99.90
48728;DHT22;34527;45.618;5.130;2022-12-11T05:02:15;-1.40;99.90
48728;DHT22;34527;45.618;5.130;2022-12-11T05:04:41;-1.40;99.90
48728;DHT22;34527;45.618;5.130;2022-12-11T05:07:07;-1.40;99.90
48728;DHT22;34527;45.618;5.130;2022-12-11T05:09:36;-1.30;99.90
48728;DHT22;34527;45.618;5.130;2022-12-11T05:12:02;-1.40;99.90
48728;DHT22;34527;45.618;5.130;2022-12-11T05:14:28;-1.30;99.90
48728;DHT22;34527;45.618;5.130;2022-12-11T05:16:57;-1.30;99.90
48728;DHT22;34527;45.618;5.130;2022-12-11T05:19:23;-1.40;99.90
48728;DHT22;34527;45.618;5.130;2022-12-11T05:21:49;-1.30;99.90
48728;DHT22;34527;45.618;5.130;2022-12-11T05:24:15;-1.30;99.90
48728;DHT22;34527;45.618;5.130;2022-12-11T05:26:41;-1.40;99.90
48728;DHT22;34527;45.618;5.130;2022-12-11T05:29:07;-1.40;99.90
48728;DHT22;34527;45.618;5.130;2022-12-11T05:31:33;-1.40;99.90
48728;DHT22;34527;45.618;5.130;2022-12-11T05:33:59;-1.40;99.90
48728;DHT22;34527;45.618;5.130;2022-12-11T05:36:27;-1.40;99.90
48728;DHT22;34527;45.618;5.130;2022-12-11T05:38:54;-1.40;99.90
48728;DHT22;34527;45.618;5.130;2022-12-11T05:41:22;-1.40;99.90
48728;DHT22;34527;45.618;5.130;2022-12-11T05:43:48;-1.40;99.90
48728;DHT22;34527;45.618;5.130;2022-12-11T05:46:22;-1.40;99.90
48728;DHT22;34527;45.618;5.130;2022-12-11T05:48:49;-1.40;99.90
48728;DHT22;34527;45.618;5.130;2022-12-11T05:51:16;-1.50;99.90
48728;DHT22;34527;45.618;5.130;2022-12-11T05:53:44;-1.50;99.90
48728;DHT22;34527;45.618;5.130;2022-12-11T05:56:16;-1.60;99.90
48728;DHT22;34527;45.618;5.130;2022-12-11T05:58:43;-1.60;99.90
48728;DHT22;34527;45.618;5.130;2022-12-11T06:01:14;-1.60;99.90
48728;DHT22;34527;45.618;5.130;2022-12-11T06:03:40;-1.50;99.90
48728;DHT22;34527;45.618;5.130;2022-12-11T06:06:06;-1.60;99.90
48728;DHT22;34527;45.618;5.130;2022-12-11T06:08:33;-1.50;99.90
48728;DHT22;34527;45.618;5.130;2022-12-11T06:10:59;-1.60;99.90
48728;DHT22;34527;45.618;5.130;2022-12-11T06:13:26;-1.50;99.90
48728;DHT22;34527;45.618;5.130;2022-12-11T06:15:52;-1.60;99.90
48728;DHT22;34527;45.618;5.130;2022-12-11T06:18:18;-1.60;99.90
48728;DHT22;34527;45.618;5.130;2022-12-11T06:20:43;-1.60;99.90
48728;DHT22;34527;45.618;5.130;2022-12-11T06:23:09;-1.60;99.90
48728;DHT22;34527;45.618;5.130;2022-12-11T06:25:38;-1.60;99.90
48728;DHT22;34527;45.618;5.130;2022-12-11T06:28:04;-1.60;99.90
48728;DHT22;34527;45.618;5.130;2022-12-11T06:30:30;-1.60;99.90
48728;DHT22;34527;45.618;5.130;2022-12-11T06:32:57;-1.60;99.90
48728;DHT22;34527;45.618;5.130;2022-12-11T06:35:23;-1.60;99.90
48728;DHT22;34527;45.618;5.130;2022-12-11T06:37:49;-1.60;99.90
48728;DHT22;34527;45.618;5.130;2022-12-11T06:40:15;-1.60;99.90
48728;DHT22;34527;45.618;5.130;2022-12-11T06:42:41;-1.60;99.90
48728;DHT22;34527;45.618;5.130;2022-12-11T06:45:07;-1.70;99.90
48728;DHT22;34527;45.618;5.130;2022-12-11T06:47:33;-1.70;99.90
48728;DHT22;34527;45.618;5.130;2022-12-11T06:49:59;-1.70;99.90
48728;DHT22;34527;45.618;5.130;2022-12-11T06:52:26;-1.70;99.90
48728;DHT22;34527;45.618;5.130;2022-12-11T06:54:53;-1.80;99.90
48728;DHT22;34527;45.618;5.130;2022-12-11T06:57:19;-1.80;99.90
48728;DHT22;34527;45.618;5.130;2022-12-11T06:59:45;-1.80;99.90
48728;DHT22;34527;45.618;5.130;2022-12-11T07:02:15;-1.90;99.90
48728;DHT22;34527;45.618;5.130;2022-12-11T07:04:42;-1.90;99.90
48728;DHT22;34527;45.618;5.130;2022-12-11T07:07:08;-1.90;99.90
48728;DHT22;34527;45.618;5.130;2022-12-11T07:09:35;-2.00;99.90
48728;DHT22;34527;45.618;5.130;2022-12-11T07:12:01;-2.00;99.90
48728;DHT22;34527;45.618;5.130;2022-12-11T07:14:29;-2.10;99.90
48728;DHT22;34527;45.618;5.130;2022-12-11T07:16:56;-2.10;99.90
48728;DHT22;34527;45.618;5.130;2022-12-11T07:19:23;-2.10;99.90
48728;DHT22;34527;45.618;5.130;2022-12-11T07:21:49;-2.00;99.90
48728;DHT22;34527;45.618;5.130;2022-12-11T07:24:15;-2.00;99.90
48728;DHT22;34527;45.618;5.130;2022-12-11T07:26:41;-2.00;99.90
48728;DHT22;34527;45.618;5.130;2022-12-11T07:29:07;-2.00;99.90
48728;DHT22;34527;45.618;5.130;2022-12-11T07:31:33;-2.00;99.90
48728;DHT22;34527;45.618;5.130;2022-12-11T07:34:02;-2.00;99.90
48728;DHT22;34527;45.618;5.130;2022-12-11T07:36:29;-2.00;99.90
48728;DHT22;34527;45.618;5.130;2022-12-11T07:38:55;-2.00;99.90
48728;DHT22;34527;45.618;5.130;2022-12-11T07:41:22;-1.90;99.90
48728;DHT22;34527;45.618;5.130;2022-12-11T07:43:48;-1.90;99.90
48728;DHT22;34527;45.618;5.130;2022-12-11T07:46:16;-1.90;99.90
48728;DHT22;34527;45.618;5.130;2022-12-11T07:48:44;-2.00;99.90
48728;DHT22;34527;45.618;5.130;2022-12-11T07:51:16;-1.90;99.90
48728;DHT22;34527;45.618;5.130;2022-12-11T07:53:44;-1.90;99.90
48728;DHT22;34527;45.618;5.130;2022-12-11T07:56:10;-1.80;99.90
48728;DHT22;34527;45.618;5.130;2022-12-11T07:58:36;-1.90;99.90
48728;DHT22;34527;45.618;5.130;2022-12-11T08:01:04;-1.90;99.90
48728;DHT22;34527;45.618;5.130;2022-12-11T08:03:30;-1.80;99.90
48728;DHT22;34527;45.618;5.130;2022-12-11T08:05:56;-1.80;99.90
48728;DHT22;34527;45.618;5.130;2022-12-11T08:08:22;-1.80;99.90
48728;DHT22;34527;45.618;5.130;2022-12-11T08:10:48;-1.80;99.90
48728;DHT22;34527;45.618;5.130;2022-12-11T08:13:14;-1.80;99.90
48728;DHT22;34527;45.618;5.130;2022-12-11T08:15:39;-1.80;99.90
48728;DHT22;34527;45.618;5.130;2022-12-11T08:18:06;-1.80;99.90
48728;DHT22;34527;45.618;5.130;2022-12-11T08:20:32;-1.90;99.90
48728;DHT22;34527;45.618;5.130;2022-12-11T08:22:58;-1.90;99.90
48728;DHT22;34527;45.618;5.130;2022-12-11T08:25:24;-1.90;99.90
48728;DHT22;34527;45.618;5.130;2022-12-11T08:27:49;-1.80;99.90
48728;DHT22;34527;45.618;5.130;2022-12-11T08:30:16;-1.80;99.90
48728;DHT22;34527;45.618;5.130;2022-12-11T08:32:42;-1.70;99.90
48728;DHT22;34527;45.618;5.130;2022-12-11T08:35:08;-1.70;99.90
48728;DHT22;34527;45.618;5.130;2022-12-11T08:37:34;-1.70;99.90
48728;DHT22;34527;45.618;5.130;2022-12-11T08:39:59;-1.70;99.90
48728;DHT22;34527;45.618;5.130;2022-12-11T08:42:25;-1.60;99.90
48728;DHT22;34527;45.618;5.130;2022-12-11T08:44:51;-1.70;99.90
48728;DHT22;34527;45.618;5.130;2022-12-11T08:47:17;-1.70;99.90
48728;DHT22;34527;45.618;5.130;2022-12-11T08:49:43;-1.70;99.90
48728;DHT22;34527;45.618;5.130;2022-12-11T08:52:09;-1.70;99.90
48728;DHT22;34527;45.618;5.130;2022-12-11T08:54:36;-1.70;99.90
48728;DHT22;34527;45.618;5.130;2022-12-11T08:57:02;-1.60;99.90
48728;DHT22;34527;45.618;5.130;2022-12-11T08:59:28;-1.60;99.90
48728;DHT22;34527;45.618;5.130;2022-12-11T09:01:54;-1.60;99.90
48728;DHT22;34527;45.618;5.130;2022-12-11T09:04:21;-1.50;99.90
48728;DHT22;34527;45.618;5.130;2022-12-11T09:06:47;-1.60;99.90
48728;DHT22;34527;45.618;5.130;2022-12-11T09:09:13;-1.60;99.90
48728;DHT22;34527;45.618;5.130;2022-12-11T09:11:39;-1.60;99.90
48728;DHT22;34527;45.618;5.130;2022-12-11T09:14:06;-1.60;99.90
48728;DHT22;34527;45.618;5.130;2022-12-11T09:16:32;-1.70;99.90
48728;DHT22;34527;45.618;5.130;2022-12-11T09:18:59;-1.60;99.90
48728;DHT22;34527;45.618;5.130;2022-12-11T09:21:28;-1.60;99.90
48728;DHT22;34527;45.618;5.130;2022-12-11T09:23:57;-1.50;99.90
48728;DHT22;34527;45.618;5.130;2022-12-11T09:26:24;-1.60;99.90
48728;DHT22;34527;45.618;5.130;2022-12-11T09:28:50;-1.60;99.90
48728;DHT22;34527;45.618;5.130;2022-12-11T09:31:26;-1.70;99.90
48728;DHT22;34527;45.618;5.130;2022-12-11T09:33:56;-1.50;99.90
48728;DHT22;34527;45.618;5.130;2022-12-11T09:36:22;-1.60;99.90
48728;DHT22;34527;45.618;5.130;2022-12-11T09:38:48;-1.60;99.90
48728;DHT22;34527;45.618;5.130;2022-12-11T09:41:28;-1.70;99.90
48728;DHT22;34527;45.618;5.130;2022-12-11T09:44:06;-1.50;99.90
48728;DHT22;34527;45.618;5.130;2022-12-11T09:46:34;-1.30;99.90
48728;DHT22;34527;45.618;5.130;2022-12-11T09:49:03;-1.40;99.90
48728;DHT22;34527;45.618;5.130;2022-12-11T09:52:11;-1.50;99.90
48728;DHT22;34527;45.618;5.130;2022-12-11T09:54:55;-1.50;99.90
48728;DHT22;34527;45.618;5.130;2022-12-11T10:02:45;-1.60;99.90
48728;DHT22;34527;45.618;5.130;2022-12-11T10:05:25;-1.50;99.90
48728;DHT22;34527;45.618;5.130;2022-12-11T10:13:56;-1.70;99.90
48728;DHT22;34527;45.618;5.130;2022-12-11T10:16:39;-1.60;99.90
48728;DHT22;34527;45.618;5.130;2022-12-11T10:19:14;-1.70;99.90
48728;DHT22;34527;45.618;5.130;2022-12-11T10:21:41;-1.60;99.90
48728;DHT22;34527;45.618;5.130;2022-12-11T10:24:21;-1.70;99.90
48728;DHT22;34527;45.618;5.130;2022-12-11T10:26:48;-1.50;99.90
48728;DHT22;34527;45.618;5.130;2022-12-11T10:29:16;-1.50;99.90
48728;DHT22;34527;45.618;5.130;2022-12-11T10:31:53;-1.60;99.90
48728;DHT22;34527;45.618;5.130;2022-12-11T10:34:33;-1.70;99.90
48728;DHT22;34527;45.618;5.130;2022-12-11T10:37:00;-1.60;99.90
48728;DHT22;34527;45.618;5.130;2022-12-11T10:39:26;-1.70;99.90
48728;DHT22;34527;45.618;5.130;2022-12-11T10:41:54;-1.60;99.90
48728;DHT22;34527;45.618;5.130;2022-12-11T10:44:28;-1.60;99.90
48728;DHT22;34527;45.618;5.130;2022-12-11T10:47:08;-1.70;99.90
48728;DHT22;34527;45.618;5.130;2022-12-11T10:49:36;-1.80;99.90
48728;DHT22;34527;45.618;5.130;2022-12-11T10:52:10;-1.80;99.90
48728;DHT22;34527;45.618;5.130;2022-12-11T10:54:42;-1.80;99.90
48728;DHT22;34527;45.618;5.130;2022-12-11T10:57:10;-1.70;99.90
48728;DHT22;34527;45.618;5.130;2022-12-11T10:59:44;-1.70;99.90
48728;DHT22;34527;45.618;5.130;2022-12-11T11:04:53;-1.70;99.90
48728;DHT22;34527;45.618;5.130;2022-12-11T11:07:23;-1.80;99.90
48728;DHT22;34527;45.618;5.130;2022-12-11T11:09:50;-1.70;99.90
48728;DHT22;34527;45.618;5.130;2022-12-11T11:12:26;-1.70;99.90
48728;DHT22;34527;45.618;5.130;2022-12-11T11:15:24;-1.70;99.90
48728;DHT22;34527;45.618;5.130;2022-12-11T11:17:56;-1.80;99.90
48728;DHT22;34527;45.618;5.130;2022-12-11T11:20:25;-1.80;99.90
48728;DHT22;34527;45.618;5.130;2022-12-11T11:22:55;-1.40;99.90
48728;DHT22;34527;45.618;5.130;2022-12-11T11:25:26;-1.50;99.90
48728;DHT22;34527;45.618;5.130;2022-12-11T11:27:59;-1.50;99.90
48728;DHT22;34527;45.618;5.130;2022-12-11T11:30:26;-1.50;99.90
48728;DHT22;34527;45.618;5.130;2022-12-11T11:32:55;-1.60;99.90
48728;DHT22;34527;45.618;5.130;2022-12-11T11:35:25;-1.60;99.90
48728;DHT22;34527;45.618;5.130;2022-12-11T11:38:04;-1.70;99.90
48728;DHT22;34527;45.618;5.130;2022-12-11T11:43:46;-1.60;99.90
48728;DHT22;34527;45.618;5.130;2022-12-11T11:46:24;-1.60;99.90
48728;DHT22;34527;45.618;5.130;2022-12-11T11:48:57;-1.70;99.90
48728;DHT22;34527;45.618;5.130;2022-12-11T11:54:51;-1.60;99.90
48728;DHT22;34527;45.618;5.130;2022-12-11T12:00:35;-1.70;99.90
48728;DHT22;34527;45.618;5.130;2022-12-11T12:03:11;-1.70;99.90
48728;DHT22;34527;45.618;5.130;2022-12-11T12:16:48;-1.40;99.90
48728;DHT22;34527;45.618;5.130;2022-12-11T12:19:55;-1.40;99.90
48728;DHT22;34527;45.618;5.130;2022-12-11T12:22:37;-1.50;99.90
48728;DHT22;34527;45.618;5.130;2022-12-11T12:28:12;-1.60;99.90
48728;DHT22;34527;45.618;5.130;2022-12-11T12:30:51;-1.60;99.90
48728;DHT22;34527;45.618;5.130;2022-12-11T12:33:33;-1.60;99.90
48728;DHT22;34527;45.618;5.130;2022-12-11T12:36:26;-1.60;99.90
48728;DHT22;34527;45.618;5.130;2022-12-11T12:44:23;-1.70;99.90
48728;DHT22;34527;45.618;5.130;2022-12-11T12:47:13;-1.70;99.90
48728;DHT22;34527;45.618;5.130;2022-12-11T12:49:59;-1.70;99.90
48728;DHT22;34527;45.618;5.130;2022-12-11T12:52:34;-1.70;99.90
48728;DHT22;34527;45.618;5.130;2022-12-11T12:55:18;-1.60;99.90
48728;DHT22;34527;45.618;5.130;2022-12-11T12:57:53;-1.60;99.90
48728;DHT22;34527;45.618;5.130;2022-12-11T13:02:52;-1.70;99.90
48728;DHT22;34527;45.618;5.130;2022-12-11T13:05:24;-1.60;99.90
48728;DHT22;34527;45.618;5.130;2022-12-11T13:07:56;-1.70;99.90
48728;DHT22;34527;45.618;5.130;2022-12-11T13:10:31;-1.80;99.90
48728;DHT22;34527;45.618;5.130;2022-12-11T13:12:58;-1.90;99.90
48728;DHT22;34527;45.618;5.130;2022-12-11T13:15:39;-1.80;99.90
48728;DHT22;34527;45.618;5.130;2022-12-11T13:18:33;-1.80;99.90
48728;DHT22;34527;45.618;5.130;2022-12-11T13:21:01;-1.90;99.90
48728;DHT22;34527;45.618;5.130;2022-12-11T13:23:32;-1.70;99.90
48728;DHT22;34527;45.618;5.130;2022-12-11T13:26:03;-1.70;99.90
48728;DHT22;34527;45.618;5.130;2022-12-11T13:33:30;-1.70;99.90
48728;DHT22;34527;45.618;5.130;2022-12-11T13:36:32;-1.70;99.90
48728;DHT22;34527;45.618;5.130;2022-12-11T13:39:15;-1.60;99.90
48728;DHT22;34527;45.618;5.130;2022-12-11T13:41:47;-1.60;99.90
48728;DHT22;34527;45.618;5.130;2022-12-11T13:44:20;-1.60;99.90
48728;DHT22;34527;45.618;5.130;2022-12-11T13:46:48;-1.70;99.90
48728;DHT22;34527;45.618;5.130;2022-12-11T13:49:23;-1.80;99.90
48728;DHT22;34527;45.618;5.130;2022-12-11T13:51:52;-1.70;99.90
48728;DHT22;34527;45.618;5.130;2022-12-11T13:54:18;-1.70;99.90
48728;DHT22;34527;45.618;5.130;2022-12-11T13:59:40;-1.60;99.90
48728;DHT22;34527;45.618;5.130;2022-12-11T14:04:43;-1.60;99.90
48728;DHT22;34527;45.618;5.130;2022-12-11T14:07:10;-1.60;99.90
48728;DHT22;34527;45.618;5.130;2022-12-11T14:09:43;-1.60;99.90
48728;DHT22;34527;45.618;5.130;2022-12-11T14:12:18;-1.50;99.90
48728;DHT22;34527;45.618;5.130;2022-12-11T14:14:49;-1.60;99.90
48728;DHT22;34527;45.618;5.130;2022-12-11T14:17:22;-1.60;99.90
48728;DHT22;34527;45.618;5.130;2022-12-11T14:19:49;-1.60;99.90
48728;DHT22;34527;45.618;5.130;2022-12-11T14:22:22;-1.40;99.90
48728;DHT22;34527;45.618;5.130;2022-12-11T14:24:56;-1.40;99.90
48728;DHT22;34527;45.618;5.130;2022-12-11T14:27:23;-1.20;99.90
48728;DHT22;34527;45.618;5.130;2022-12-11T14:29:50;-1.20;99.90
48728;DHT22;34527;45.618;5.130;2022-12-11T14:32:34;-1.40;99.90
48728;DHT22;34527;45.618;5.130;2022-12-11T14:35:03;-1.30;99.90
48728;DHT22;34527;45.618;5.130;2022-12-11T14:37:31;-1.50;99.90
48728;DHT22;34527;45.618;5.130;2022-12-11T14:40:18;-1.60;99.90
48728;DHT22;34527;45.618;5.130;2022-12-11T14:42:51;-1.50;99.90
48728;DHT22;34527;45.618;5.130;2022-12-11T14:45:22;-1.70;99.90
48728;DHT22;34527;45.618;5.130;2022-12-11T14:47:49;-1.70;99.90
48728;DHT22;34527;45.618;5.130;2022-12-11T14:50:52;-1.50;99.90
48728;DHT22;34527;45.618;5.130;2022-12-11T14:53:19;-1.40;99.90
48728;DHT22;34527;45.618;5.130;2022-12-11T14:55:47;-1.20;99.90
48728;DHT22;34527;45.618;5.130;2022-12-11T14:58:25;-1.20;99.90
48728;DHT22;34527;45.618;5.130;2022-12-11T15:01:24;-1.20;99.90
48728;DHT22;34527;45.618;5.130;2022-12-11T15:06:46;-1.20;99.90
48728;DHT22;34527;45.618;5.130;2022-12-11T15:11:56;-1.60;99.90
48728;DHT22;34527;45.618;5.130;2022-12-11T15:14:24;-1.40;99.90
48728;DHT22;34527;45.618;5.130;2022-12-11T15:16:52;-1.30;99.90
48728;DHT22;34527;45.618;5.130;2022-12-11T15:19:30;-1.30;99.90
48728;DHT22;34527;45.618;5.130;2022-12-11T15:22:05;-1.30;99.90
48728;DHT22;34527;45.618;5.130;2022-12-11T15:24:39;-1.50;99.90
48728;DHT22;34527;45.618;5.130;2022-12-11T15:27:23;-1.60;99.90
48728;DHT22;34527;45.618;5.130;2022-12-11T15:29:49;-1.60;99.90
48728;DHT22;34527;45.618;5.130;2022-12-11T15:32:18;-1.50;99.90
48728;DHT22;34527;45.618;5.130;2022-12-11T15:34:52;-1.60;99.90
48728;DHT22;34527;45.618;5.130;2022-12-11T15:37:28;-1.70;99.90
48728;DHT22;34527;45.618;5.130;2022-12-11T15:39:56;-1.60;99.90
48728;DHT22;34527;45.618;5.130;2022-12-11T15:42:24;-1.60;99.90
48728;DHT22;34527;45.618;5.130;2022-12-11T15:44:51;-1.70;99.90
48728;DHT22;34527;45.618;5.130;2022-12-11T15:47:21;-1.70;99.90
48728;DHT22;34527;45.618;5.130;2022-12-11T15:49:48;-1.50;99.90
48728;DHT22;34527;45.618;5.130;2022-12-11T15:52:13;-1.50;99.90
48728;DHT22;34527;45.618;5.130;2022-12-11T15:54:39;-1.50;99.90
48728;DHT22;34527;45.618;5.130;2022-12-11T15:57:08;-1.50;99.90
48728;DHT22;34527;45.618;5.130;2022-12-11T15:59:37;-1.50;99.90
48728;DHT22;34527;45.618;5.130;2022-12-11T16:02:07;-1.50;99.90
48728;DHT22;34527;45.618;5.130;2022-12-11T16:04:34;-1.40;99.90
48728;DHT22;34527;45.618;5.130;2022-12-11T16:07:00;-1.50;99.90
48728;DHT22;34527;45.618;5.130;2022-12-11T16:09:25;-1.60;99.90
48728;DHT22;34527;45.618;5.130;2022-12-11T16:11:51;-1.50;99.90
48728;DHT22;34527;45.618;5.130;2022-12-11T16:14:17;-1.50;99.90
48728;DHT22;34527;45.618;5.130;2022-12-11T16:16:43;-1.50;99.90
48728;DHT22;34527;45.618;5.130;2022-12-11T16:19:09;-1.50;99.90
48728;DHT22;34527;45.618;5.130;2022-12-11T16:21:34;-1.60;99.90
48728;DHT22;34527;45.618;5.130;2022-12-11T16:24:00;-1.50;99.90
48728;DHT22;34527;45.618;5.130;2022-12-11T16:26:26;-1.50;99.90
48728;DHT22;34527;45.618;5.130;2022-12-11T16:28:52;-1.50;99.90
48728;DHT22;34527;45.618;5.130;2022-12-11T16:31:18;-1.50;99.90
48728;DHT22;34527;45.618;5.130;2022-12-11T16:33:44;-1.50;99.90
48728;DHT22;34527;45.618;5.130;2022-12-11T16:36:14;-1.60;99.90
48728;DHT22;34527;45.618;5.130;2022-12-11T16:38:43;-1.60;99.90
48728;DHT22;34527;45.618;5.130;2022-12-11T16:41:09;-1.60;99.90
48728;DHT22;34527;45.618;5.130;2022-12-11T16:43:35;-1.60;99.90
48728;DHT22;34527;45.618;5.130;2022-12-11T16:46:01;-1.60;99.90
48728;DHT22;34527;45.618;5.130;2022-12-11T16:48:27;-1.60;99.90
48728;DHT22;34527;45.618;5.130;2022-12-11T16:50:53;-1.60;99.90
48728;DHT22;34527;45.618;5.130;2022-12-11T16:53:20;-1.90;99.90
48728;DHT22;34527;45.618;5.130;2022-12-11T16:55:46;-1.70;99.90
48728;DHT22;34527;45.618;5.130;2022-12-11T16:58:12;-1.70;99.90
48728;DHT22;34527;45.618;5.130;2022-12-11T17:00:45;-1.50;99.90
48728;DHT22;34527;45.618;5.130;2022-12-11T17:03:11;-1.60;99.90
48728;DHT22;34527;45.618;5.130;2022-12-11T17:05:41;-1.60;99.90